createdAt,value
2022-10-01T00:00:40.389Z,2.65
2022-10-01T00:05:45.030Z,2.78
2022-10-01T00:10:50.685Z,2.63
2022-10-01T00:15:53.860Z,2.55
2022-10-01T00:20:58.474Z,2.35
2022-10-01T00:26:11.192Z,2.50
2022-10-01T00:31:14.760Z,2.20
2022-10-01T00:36:20.096Z,2.70
2022-10-01T00:41:23.559Z,2.28
2022-10-01T00:46:45.088Z,2.28
2022-10-01T00:51:51.880Z,1.77
2022-10-01T00:56:55.901Z,1.95
2022-10-01T01:01:59.260Z,1.95
2022-10-01T01:07:21.888Z,1.92
2022-10-01T01:12:33.627Z,1.80
2022-10-01T01:17:41.075Z,2.10
2022-10-01T01:22:54.537Z,1.90
2022-10-01T01:28:08.368Z,1.90
2022-10-01T01:33:13.080Z,2.00
2022-10-01T01:38:16.926Z,1.48
2022-10-01T01:43:23.299Z,1.80
2022-10-01T01:48:42.698Z,1.92
2022-10-01T01:53:46.381Z,2.10
2022-10-01T01:58:52.907Z,2.58
2022-10-01T02:03:56.854Z,2.20
2022-10-01T02:09:09.546Z,2.40
2022-10-01T02:14:18.637Z,2.85
2022-10-01T02:19:28.475Z,2.25
2022-10-01T02:24:43.889Z,2.63
2022-10-01T02:29:48.408Z,2.67
2022-10-01T02:34:55.034Z,2.50
2022-10-01T02:39:58.396Z,2.53
2022-10-01T02:45:03.503Z,2.22
2022-10-01T02:50:11.026Z,2.47
2022-10-01T02:55:17.575Z,2.88
2022-10-01T03:00:27.164Z,2.78
2022-10-01T03:05:32.687Z,3.45
2022-10-01T03:10:35.958Z,3.17
2022-10-01T03:15:40.763Z,3.50
2022-10-01T03:20:44.282Z,3.25
2022-10-01T03:25:48.230Z,3.42
2022-10-01T03:30:53.793Z,3.10
2022-10-01T03:35:57.300Z,3.40
2022-10-01T03:41:01.053Z,4.25
2022-10-01T03:46:05.701Z,3.55
2022-10-01T03:51:09.058Z,3.15
2022-10-01T03:56:12.496Z,3.50
2022-10-01T04:01:18.219Z,4.20
2022-10-01T04:06:22.554Z,2.88
2022-10-01T04:11:28.909Z,2.33
2022-10-01T04:16:35.040Z,2.17
2022-10-01T04:21:39.152Z,3.10
2022-10-01T04:26:42.941Z,2.67
2022-10-01T04:31:48.540Z,2.67
2022-10-01T04:36:53.725Z,2.42
2022-10-01T04:41:58.833Z,1.98
2022-10-01T04:47:08.522Z,2.50
2022-10-01T04:57:21.856Z,2.85
2022-10-01T05:07:54.513Z,1.77
2022-10-01T05:13:02.471Z,2.85
2022-10-01T05:18:10.333Z,2.72
2022-10-01T05:23:13.630Z,3.22
2022-10-01T05:28:21.354Z,2.20
2022-10-01T05:33:29.887Z,1.98
2022-10-01T05:38:37.535Z,1.90
2022-10-01T05:43:43.851Z,1.60
2022-10-01T05:48:51.308Z,2.00
2022-10-01T05:53:55.634Z,1.63
2022-10-01T05:58:59.573Z,1.27
2022-10-01T06:04:08.193Z,1.40
2022-10-01T06:09:11.867Z,1.17
2022-10-01T06:14:17.100Z,1.25
2022-10-01T06:19:21.875Z,0.90
2022-10-01T06:24:26.828Z,0.90
2022-10-01T06:29:30.454Z,0.70
2022-10-01T06:34:37.065Z,0.73
2022-10-01T06:39:40.359Z,0.60
2022-10-01T06:44:47.145Z,1.10
2022-10-01T06:49:55.594Z,1.20
2022-10-01T06:55:01.576Z,0.95
2022-10-01T07:00:05.361Z,0.90
2022-10-01T07:05:12.167Z,0.90
2022-10-01T07:10:15.362Z,0.90
2022-10-01T07:15:19.407Z,0.73
2022-10-01T07:20:27.181Z,0.50
2022-10-01T07:25:31.399Z,0.70
2022-10-01T07:30:35.315Z,1.00
2022-10-01T07:35:44.150Z,0.80
2022-10-01T07:40:52.791Z,0.80
2022-10-01T07:46:00.410Z,0.80
2022-10-01T07:51:10.111Z,0.80
2022-10-01T08:01:18.024Z,0.95
2022-10-01T08:06:25.553Z,1.05
2022-10-01T08:11:31.432Z,0.60
2022-10-01T08:16:35.228Z,0.80
2022-10-01T08:21:41.434Z,1.10
2022-10-01T08:26:45.220Z,1.10
2022-10-01T08:32:07.080Z,1.00
2022-10-01T08:37:14.391Z,0.93
2022-10-01T08:42:22.793Z,1.05
2022-10-01T08:47:38.180Z,1.30
2022-10-01T08:52:48.220Z,1.02
2022-10-01T08:58:00.368Z,0.98
2022-10-01T09:03:09.227Z,1.00
2022-10-01T09:08:22.560Z,1.02
2022-10-01T09:13:50.213Z,0.98
2022-10-01T09:19:02.274Z,0.73
2022-10-01T09:24:13.190Z,0.77
2022-10-01T09:29:28.998Z,0.90
2022-10-01T09:34:36.730Z,0.80
2022-10-01T09:39:43.807Z,1.00
2022-10-01T09:44:49.736Z,1.20
2022-10-01T09:49:55.810Z,1.02
2022-10-01T09:55:02.226Z,1.20
2022-10-01T10:00:10.149Z,1.10
2022-10-01T10:05:16.066Z,1.20
2022-10-01T10:10:26.173Z,1.10
2022-10-01T10:15:32.581Z,1.33
2022-10-01T10:20:41.626Z,1.30
2022-10-01T10:26:00.975Z,1.33
2022-10-01T10:31:04.123Z,1.25
2022-10-01T10:36:09.087Z,1.23
2022-10-01T10:41:19.715Z,1.55
2022-10-01T10:46:31.842Z,1.90
2022-10-01T10:51:51.417Z,1.63
2022-10-01T10:57:15.770Z,1.70
2022-10-01T11:02:19.683Z,2.20
2022-10-01T11:07:24.101Z,2.22
2022-10-01T11:12:41.670Z,2.40
2022-10-01T11:17:58.531Z,1.42
2022-10-01T11:23:11.204Z,1.23
2022-10-01T11:28:29.590Z,1.13
2022-10-01T11:33:37.052Z,0.80
2022-10-01T11:38:52.027Z,1.02
2022-10-01T11:44:03.924Z,0.70
2022-10-01T11:49:30.582Z,0.63
2022-10-01T11:54:34.605Z,0.75
2022-10-01T11:59:43.148Z,0.70
2022-10-01T12:04:49.951Z,0.43
2022-10-01T12:10:02.751Z,0.32
2022-10-01T12:15:18.362Z,0.50
2022-10-01T12:20:27.980Z,0.70
2022-10-01T12:25:35.053Z,0.60
2022-10-01T12:30:44.178Z,0.60
2022-10-01T12:35:57.887Z,0.70
2022-10-01T12:41:08.645Z,0.70
2022-10-01T12:46:21.307Z,0.90
2022-10-01T12:51:36.593Z,0.80
2022-10-01T12:56:41.261Z,0.85
2022-10-01T13:01:56.854Z,0.90
2022-10-01T13:07:14.227Z,1.48
2022-10-01T13:12:29.936Z,1.13
2022-10-01T13:17:37.633Z,1.30
2022-10-01T13:22:46.757Z,1.17
2022-10-01T13:32:58.586Z,1.65
2022-10-01T13:38:01.829Z,1.30
2022-10-01T13:43:10.197Z,1.55
2022-10-01T13:48:20.269Z,1.17
2022-10-01T13:53:27.384Z,1.55
2022-10-01T13:58:36.415Z,1.80
2022-10-01T14:03:45.891Z,1.50
2022-10-01T14:08:51.092Z,1.52
2022-10-01T14:14:11.451Z,1.83
2022-10-01T14:19:20.820Z,1.40
2022-10-01T14:29:40.258Z,2.35
2022-10-01T14:34:59.452Z,2.58
2022-10-01T14:40:07.679Z,3.53
2022-10-01T14:45:18.560Z,3.28
2022-10-01T14:50:25.555Z,2.85
2022-10-01T14:55:29.055Z,2.97
2022-10-01T15:00:33.394Z,2.80
2022-10-01T15:05:38.179Z,2.40
2022-10-01T15:10:44.348Z,2.42
2022-10-01T15:15:47.701Z,2.40
2022-10-01T15:20:57.157Z,2.53
2022-10-01T15:26:01.478Z,1.95
2022-10-01T15:31:06.019Z,2.10
2022-10-01T15:36:18.266Z,1.30
2022-10-01T15:41:32.611Z,1.65
2022-10-01T15:46:37.085Z,2.30
2022-10-01T15:52:08.731Z,2.28
2022-10-01T15:57:18.217Z,1.92
2022-10-01T16:02:22.704Z,1.40
2022-10-01T16:07:34.925Z,1.60
2022-10-01T16:12:38.193Z,1.60
2022-10-01T16:17:42.535Z,1.80
2022-10-01T16:22:49.773Z,1.85
2022-10-01T16:27:55.777Z,1.95
2022-10-01T16:33:02.470Z,1.60
2022-10-01T16:38:08.441Z,1.50
2022-10-01T16:43:17.345Z,1.67
2022-10-01T16:48:25.553Z,2.08
2022-10-01T16:53:30.111Z,1.60
2022-10-01T16:58:33.766Z,1.55
2022-10-01T17:03:37.538Z,1.85
2022-10-01T17:08:44.661Z,1.60
2022-10-01T17:13:50.110Z,1.92
2022-10-01T17:18:53.272Z,2.00
2022-10-01T17:24:03.552Z,1.83
2022-10-01T17:29:08.783Z,1.80
2022-10-01T17:34:12.210Z,2.20
2022-10-01T17:39:22.739Z,2.33
2022-10-01T17:44:26.942Z,1.88
2022-10-01T17:49:31.173Z,2.05
2022-10-01T17:54:37.274Z,2.45
2022-10-01T17:59:40.521Z,1.92
2022-10-01T18:04:44.351Z,2.10
2022-10-01T18:09:48.979Z,1.80
2022-10-01T18:14:52.036Z,2.45
2022-10-01T18:19:55.445Z,2.17
2022-10-01T18:25:00.073Z,3.25
2022-10-01T18:30:03.469Z,2.58
2022-10-01T18:35:13.640Z,2.58
2022-10-01T18:40:20.129Z,2.50
2022-10-01T18:45:31.260Z,2.70
2022-10-01T18:50:39.829Z,2.17
2022-10-01T18:55:54.712Z,2.33
2022-10-01T19:01:01.914Z,2.50
2022-10-01T19:06:16.964Z,5.78
2022-10-01T19:11:26.452Z,12.00
2022-10-01T19:16:39.627Z,11.23
2022-10-01T19:21:49.692Z,7.15
2022-10-01T19:26:59.167Z,3.83
2022-10-01T19:32:03.204Z,1.83
2022-10-01T19:37:11.463Z,2.80
2022-10-01T19:42:19.156Z,2.70
2022-10-01T19:47:30.592Z,2.50
2022-10-01T19:52:40.766Z,2.33
2022-10-01T19:57:46.076Z,2.40
2022-10-01T20:02:52.485Z,2.65
2022-10-01T20:08:01.979Z,2.70
2022-10-01T20:13:20.102Z,2.58
2022-10-01T20:18:28.297Z,2.58
2022-10-01T20:23:38.410Z,2.33
2022-10-01T20:28:52.030Z,2.33
2022-10-01T20:34:00.102Z,2.10
2022-10-01T20:39:05.831Z,2.20
2022-10-01T20:44:12.632Z,2.63
2022-10-01T20:49:19.393Z,2.58
2022-10-01T20:54:25.234Z,2.65
2022-10-01T20:59:31.347Z,2.28
2022-10-01T21:04:38.255Z,2.53
2022-10-01T21:09:44.582Z,2.10
2022-10-01T21:20:23.418Z,2.15
2022-10-01T21:25:31.542Z,2.42
2022-10-01T21:30:40.184Z,2.38
2022-10-01T21:35:50.898Z,2.00
2022-10-01T21:41:04.269Z,2.38
2022-10-01T21:46:14.665Z,2.60
2022-10-01T21:51:19.519Z,2.30
2022-10-01T21:56:38.569Z,3.85
2022-10-01T22:01:54.489Z,2.83
2022-10-01T22:07:00.111Z,3.10
2022-10-01T22:12:03.246Z,2.72
2022-10-01T22:17:13.223Z,1.90
2022-10-01T22:22:19.810Z,2.30
2022-10-01T22:27:24.756Z,2.67
2022-10-01T22:32:32.917Z,2.78
2022-10-01T22:37:39.463Z,1.80
2022-10-01T22:42:43.680Z,1.90
2022-10-01T22:47:59.279Z,1.75
2022-10-01T22:53:15.947Z,1.67
2022-10-01T22:58:43.757Z,1.58
2022-10-01T23:04:01.997Z,1.50
2022-10-01T23:09:08.156Z,1.73
2022-10-01T23:14:16.931Z,1.48
2022-10-01T23:19:28.840Z,1.73
2022-10-01T23:24:40.794Z,1.40
2022-10-01T23:29:54.799Z,1.80
2022-10-01T23:35:02.316Z,2.10
2022-10-01T23:40:07.962Z,1.85
2022-10-01T23:45:17.745Z,2.13
2022-10-01T23:50:31.570Z,1.65
2022-10-01T23:56:03.829Z,1.63
